Time;durP1;ratioP1;P1;durP2;ratioP2;P2;SDS_P1;SDS_P2;PMS_P1;PMS_P2;Temp;Humidity;BMP_temperature;BMP_pressure;BME280_temperature;BME280_humidity;BME280_pressure;Samples;Min_cycle;Max_cycle;Signal;HPM_P1;HPM_P2
2023/10/18 00:00:58;;;;;;;22.3;12.7;;;;;;;1.04;87.14;;;;;
2023/10/18 00:10:56;;;;;;;21.6;12.3;;;;;;;0.96;87.09;;;;;
2023/10/18 00:21:56;;;;;;;21.6;12.3;;;;;;;0.88;87.2;;;;;
2023/10/18 00:31:56;;;;;;;21.6;12.3;;;;;;;0.97;88.06;;;;;
2023/10/18 00:42:23;;;;;;;18.1;9.4;;;;;;;1.18;88.86;;;;;
2023/10/18 00:51:56;;;;;;;18.1;9.4;;;;;;;1.24;88.22;;;;;
2023/10/18 01:03:06;;;;;;;18.1;9.4;;;;;;;1.36;89.2;;;;;
2023/10/18 01:12:56;;;;;;;17.2;8.6;;;;;;;1.44;88.78;;;;;
2023/10/18 01:23:56;;;;;;;17.2;8.6;;;;;;;1.41;88.09;;;;;
2023/10/18 01:33:56;;;;;;;17.2;8.6;;;;;;;1.24;87.23;;;;;
2023/10/18 01:44:56;;;;;;;12.9;8.8;;;;;;;0.96;86.68;;;;;
2023/10/18 01:55:57;;;;;;;12.9;8.8;;;;;;;0.73;86.49;;;;;
2023/10/18 02:06:57;;;;;;;15.6;8.1;;;;;;;0.41;87.26;;;;;
2023/10/18 02:17:57;;;;;;;15.6;8.1;;;;;;;0.3;87.47;;;;;
2023/10/18 02:27:59;;;;;;;15.6;8.1;;;;;;;0.24;87.45;;;;;
2023/10/18 02:38:56;;;;;;;12.2;8.3;;;;;;;0.13;87.25;;;;;
2023/10/18 02:48:56;;;;;;;12.2;8.3;;;;;;;0.07;87.67;;;;;
2023/10/18 02:59:06;;;;;;;12.2;8.3;;;;;;;0.13;88.62;;;;;
2023/10/18 03:08:58;;;;;;;15.2;6.7;;;;;;;0.29;88.8;;;;;
2023/10/18 03:19:56;;;;;;;15.2;6.7;;;;;;;0.25;87.9;;;;;
2023/10/18 03:29:58;;;;;;;15.2;6.7;;;;;;;0.13;87.46;;;;;
2023/10/18 03:39:56;;;;;;;15.2;8.6;;;;;;;0;87.11;;;;;
2023/10/18 03:51:00;;;;;;;15.2;8.6;;;;;;;-0.13;87.06;;;;;
2023/10/18 04:02:16;;;;;;;15.2;8.6;;;;;;;-0.21;87.12;;;;;
2023/10/18 04:11:56;;;;;;;12.1;7;;;;;;;-0.29;87.19;;;;;
2023/10/18 04:22:56;;;;;;;12.1;7;;;;;;;-0.39;87.19;;;;;
2023/10/18 04:32:59;;;;;;;12.1;7;;;;;;;-0.5;86.74;;;;;
2023/10/18 04:42:57;;;;;;;13.2;7.2;;;;;;;-0.63;86.49;;;;;
2023/10/18 04:52:58;;;;;;;13.2;7.2;;;;;;;-0.74;86.82;;;;;
2023/10/18 05:03:59;;;;;;;19.1;10.5;;;;;;;-0.74;87.41;;;;;
2023/10/18 05:13:56;;;;;;;19.1;10.5;;;;;;;-0.78;87.1;;;;;
2023/10/18 05:23:56;;;;;;;19.1;10.5;;;;;;;-0.81;87.52;;;;;
2023/10/18 05:35:03;;;;;;;14.6;8.5;;;;;;;-0.74;87.88;;;;;
2023/10/18 05:45:57;;;;;;;14.6;8.5;;;;;;;-0.58;88.11;;;;;
2023/10/18 05:56:56;;;;;;;14.6;8.5;;;;;;;-0.34;88.26;;;;;
2023/10/18 06:07:57;;;;;;;13;6.5;;;;;;;-0.06;88.15;;;;;
2023/10/18 06:17:57;;;;;;;13;6.5;;;;;;;0.21;88.6;;;;;
2023/10/18 06:27:59;;;;;;;13;6.5;;;;;;;0.6;88.63;;;;;
2023/10/18 06:38:56;;;;;;;19.2;11.8;;;;;;;0.99;88.46;;;;;
2023/10/18 06:48:57;;;;;;;19.2;11.8;;;;;;;1.38;88.64;;;;;
2023/10/18 06:59:56;;;;;;;19.2;11.8;;;;;;;1.87;88.66;;;;;
2023/10/18 07:09:57;;;;;;;26.2;15.6;;;;;;;2.33;88.37;;;;;
2023/10/18 07:20:59;;;;;;;26.2;15.6;;;;;;;2.9;88.21;;;;;
2023/10/18 07:30:56;;;;;;;26.2;15.6;;;;;;;3.41;87.03;;;;;
2023/10/18 07:40:56;;;;;;;28.5;14.5;;;;;;;3.88;86.93;;;;;
2023/10/18 07:50:58;;;;;;;28.5;14.5;;;;;;;4.38;85.99;;;;;
2023/10/18 08:02:12;;;;;;;28.5;14.5;;;;;;;5.1;85.79;;;;;
2023/10/18 08:11:56;;;;;;;24.7;14.5;;;;;;;5.69;84.7;;;;;
2023/10/18 08:22:05;;;;;;;24.7;14.5;;;;;;;6.39;83.47;;;;;
2023/10/18 08:32:03;;;;;;;24.7;14.5;;;;;;;7.08;81.11;;;;;
2023/10/18 08:42:57;;;;;;;21.5;11.7;;;;;;;7.72;78.2;;;;;
2023/10/18 08:52:56;;;;;;;21.5;11.7;;;;;;;8.27;75.51;;;;;
2023/10/18 09:02:57;;;;;;;21.5;11.7;;;;;;;8.61;72.41;;;;;
2023/10/18 09:13:29;;;;;;;12.1;6;;;;;;;9.06;70.57;;;;;
2023/10/18 09:24:00;;;;;;;12.1;6;;;;;;;9.49;69.43;;;;;
2023/10/18 09:34:56;;;;;;;13.2;7.1;;;;;;;9.9;66.32;;;;;
2023/10/18 09:44:56;;;;;;;13.2;7.1;;;;;;;10.3;66.4;;;;;
2023/10/18 09:55:56;;;;;;;13.2;7.1;;;;;;;10.65;63.19;;;;;
2023/10/18 10:05:57;;;;;;;18.9;11.2;;;;;;;10.95;63.26;;;;;
2023/10/18 10:16:57;;;;;;;18.9;11.2;;;;;;;11.31;59.29;;;;;
2023/10/18 10:27:59;;;;;;;18.9;11.2;;;;;;;11.42;57.08;;;;;
2023/10/18 10:38:00;;;;;;;11.1;6.9;;;;;;;11.68;55.9;;;;;
2023/10/18 10:47:57;;;;;;;11.1;6.9;;;;;;;11.87;53.72;;;;;
2023/10/18 10:57:57;;;;;;;11.1;6.9;;;;;;;11.86;54.01;;;;;
2023/10/18 11:08:56;;;;;;;12.6;5.9;;;;;;;12.03;53.68;;;;;
2023/10/18 11:19:59;;;;;;;12.6;5.9;;;;;;;11.87;54.67;;;;;
2023/10/18 11:30:56;;;;;;;12.6;5.9;;;;;;;12.45;55.26;;;;;
2023/10/18 11:40:56;;;;;;;10.2;5.7;;;;;;;12.41;52.73;;;;;
2023/10/18 11:50:56;;;;;;;10.2;5.7;;;;;;;12.76;56.32;;;;;
2023/10/18 12:01:57;;;;;;;10.2;5.7;;;;;;;12.79;52.05;;;;;
2023/10/18 12:12:57;;;;;;;11.7;5.5;;;;;;;12.98;52.85;;;;;
2023/10/18 12:23:57;;;;;;;11.7;5.5;;;;;;;13.02;52.11;;;;;
2023/10/18 12:33:58;;;;;;;10.6;6.8;;;;;;;13.09;53.25;;;;;
2023/10/18 12:43:56;;;;;;;10.6;6.8;;;;;;;13.24;53.68;;;;;
2023/10/18 12:54:56;;;;;;;10.6;6.8;;;;;;;13.39;51.56;;;;;
2023/10/18 13:04:59;;;;;;;11;5.8;;;;;;;13.48;53.34;;;;;
2023/10/18 13:15:57;;;;;;;11;5.8;;;;;;;13.39;53.84;;;;;
2023/10/18 13:26:59;;;;;;;11;5.8;;;;;;;13.64;52.88;;;;;
2023/10/18 13:36:56;;;;;;;10;6.1;;;;;;;13.42;51.94;;;;;
2023/10/18 13:47:58;;;;;;;10;6.1;;;;;;;13.6;52.28;;;;;
2023/10/18 13:58:56;;;;;;;10;6.1;;;;;;;13.52;52.99;;;;;
2023/10/18 14:09:56;;;;;;;8.8;6.2;;;;;;;13.35;53.31;;;;;
2023/10/18 14:19:58;;;;;;;8.8;6.2;;;;;;;13.31;56.02;;;;;
2023/10/18 14:30:58;;;;;;;8.8;6.2;;;;;;;13.15;55.6;;;;;
2023/10/18 14:41:57;;;;;;;10.3;5.3;;;;;;;12.74;54.61;;;;;
2023/10/18 14:52:56;;;;;;;10.3;5.3;;;;;;;12.04;56.05;;;;;
2023/10/18 15:02:56;;;;;;;157.5;93.4;;;;;;;11.56;57.21;;;;;
2023/10/18 15:12:56;;;;;;;157.5;93.4;;;;;;;10.96;59.67;;;;;
2023/10/18 15:23:56;;;;;;;157.5;93.4;;;;;;;10.25;61.04;;;;;
2023/10/18 15:33:56;;;;;;;18.2;7.8;;;;;;;9.7;65.49;;;;;
2023/10/18 15:44:56;;;;;;;18.2;7.8;;;;;;;9;67.44;;;;;
2023/10/18 15:55:56;;;;;;;18.2;7.8;;;;;;;8.36;70.5;;;;;
2023/10/18 16:05:57;;;;;;;10.4;4.7;;;;;;;7.88;72.29;;;;;
2023/10/18 16:15:56;;;;;;;10.4;4.7;;;;;;;7.35;73.89;;;;;
2023/10/18 16:26:56;;;;;;;10.4;4.7;;;;;;;7.01;75.66;;;;;
2023/10/18 16:36:56;;;;;;;12.6;7;;;;;;;6.94;76.71;;;;;
2023/10/18 16:47:57;;;;;;;12.6;7;;;;;;;6.84;77.27;;;;;
2023/10/18 16:58:56;;;;;;;12.6;7;;;;;;;6.71;77.64;;;;;
2023/10/18 17:09:57;;;;;;;36.4;19.6;;;;;;;6.59;77.72;;;;;
2023/10/18 17:20:58;;;;;;;36.4;19.6;;;;;;;6.51;77.89;;;;;
2023/10/18 17:30:56;;;;;;;;;;;;;;;;;;;;;
2023/10/18 17:40:56;;;;;;;24.1;14.6;;;;;;;6.3;77.99;;;;;
2023/10/18 17:50:56;;;;;;;24.1;14.6;;;;;;;6.23;77.85;;;;;
2023/10/18 18:00:58;;;;;;;;;;;;;;;;;;;;;
2023/10/18 18:11:57;;;;;;;;;;;;;;;;;;;;;
2023/10/18 18:22:56;;;;;;;34.1;17.7;;;;;;;5.89;77.36;;;;;
2023/10/18 18:32:56;;;;;;;34.1;17.7;;;;;;;5.67;77.21;;;;;
2023/10/18 18:43:56;;;;;;;23.4;14.3;;;;;;;5.38;77.47;;;;;
2023/10/18 18:53:56;;;;;;;23.4;14.3;;;;;;;5.15;77.82;;;;;
2023/10/18 19:03:57;;;;;;;23.4;14.3;;;;;;;5.12;78.42;;;;;
2023/10/18 19:14:59;;;;;;;17.9;8.7;;;;;;;5.16;78.53;;;;;
2023/10/18 19:24:57;;;;;;;17.9;8.7;;;;;;;4.81;78.58;;;;;
2023/10/18 19:35:58;;;;;;;17.9;8.7;;;;;;;4.6;79.5;;;;;
2023/10/18 19:45:58;;;;;;;21.7;10.4;;;;;;;4.42;79.85;;;;;
2023/10/18 19:56:57;;;;;;;21.7;10.4;;;;;;;4.08;79.81;;;;;
2023/10/18 20:06:56;;;;;;;21.7;10.4;;;;;;;3.79;81.87;;;;;
2023/10/18 20:17:57;;;;;;;24;14.6;;;;;;;3.48;82.05;;;;;
2023/10/18 20:28:56;;;;;;;24;14.6;;;;;;;3.16;82.12;;;;;
2023/10/18 20:39:56;;;;;;;24;14.6;;;;;;;2.9;82.47;;;;;
2023/10/18 20:50:56;;;;;;;22.1;15.4;;;;;;;2.62;83.11;;;;;
2023/10/18 21:00:56;;;;;;;22.1;15.4;;;;;;;2.42;83.21;;;;;
2023/10/18 21:10:56;;;;;;;22.1;15.4;;;;;;;2.22;83.8;;;;;
2023/10/18 21:20:56;;;;;;;23.3;13.6;;;;;;;2.06;84.13;;;;;
2023/10/18 21:30:57;;;;;;;23.3;13.6;;;;;;;1.98;85.71;;;;;
2023/10/18 21:40:57;;;;;;;23.3;13.6;;;;;;;1.86;85.5;;;;;
2023/10/18 21:51:57;;;;;;;20.4;12.6;;;;;;;1.75;86.21;;;;;
2023/10/18 22:02:03;;;;;;;20.4;12.6;;;;;;;1.66;86.93;;;;;
2023/10/18 22:11:59;;;;;;;21.8;12.2;;;;;;;1.68;87.65;;;;;
2023/10/18 22:21:57;;;;;;;21.8;12.2;;;;;;;1.59;87.42;;;;;
2023/10/18 22:32:57;;;;;;;21.8;12.2;;;;;;;1.51;87.39;;;;;
2023/10/18 22:42:58;;;;;;;24.1;13.2;;;;;;;1.42;87.51;;;;;
2023/10/18 22:54:03;;;;;;;24.1;13.2;;;;;;;1.3;87.35;;;;;
2023/10/18 23:04:00;;;;;;;24.1;13.2;;;;;;;1.18;87.1;;;;;
2023/10/18 23:15:17;;;;;;;24.4;13.9;;;;;;;1.07;88.02;;;;;
2023/10/18 23:37:01;;;;;;;24.4;13.9;;;;;;;0.95;87.72;;;;;
2023/10/18 23:48:30;;;;;;;23.6;13.4;;;;;;;0.89;87.7;;;;;
2023/10/18 23:58:57;;;;;;;23.6;13.4;;;;;;;0.85;88;;;;;
